createdAt,value
2018-03-11T00:02:05.966Z,96.40
2018-03-11T00:04:34.875Z,96.40
2018-03-11T00:07:04.744Z,96.30
2018-03-11T00:09:33.785Z,96.30
2018-03-11T00:12:03.994Z,96.30
2018-03-11T00:14:33.685Z,96.30
2018-03-11T00:17:03.142Z,96.40
2018-03-11T00:19:33.105Z,96.50
2018-03-11T00:22:03.263Z,96.50
2018-03-11T00:24:32.247Z,96.50
2018-03-11T00:27:02.218Z,96.40
2018-03-11T00:29:31.386Z,96.40
2018-03-11T00:32:00.891Z,96.50
2018-03-11T00:34:30.124Z,96.50
2018-03-11T00:37:00.384Z,96.40
2018-03-11T00:39:31.008Z,96.50
2018-03-11T00:42:01.184Z,96.50
2018-03-11T00:44:30.693Z,96.50
2018-03-11T00:47:00.705Z,96.50
2018-03-11T00:49:30.960Z,96.40
2018-03-11T00:52:00.852Z,96.50
2018-03-11T00:54:30.625Z,96.40
2018-03-11T00:56:59.895Z,96.50
2018-03-11T00:59:30.872Z,96.50
2018-03-11T01:01:59.995Z,96.50
2018-03-11T01:04:29.480Z,96.60
2018-03-11T01:06:59.349Z,96.60
2018-03-11T01:09:29.737Z,96.60
2018-03-11T01:11:59.548Z,96.60
2018-03-11T01:14:29.077Z,96.60
2018-03-11T01:17:00.104Z,96.60
2018-03-11T01:19:29.408Z,96.60
2018-03-11T01:21:58.280Z,96.50
2018-03-11T01:24:27.784Z,96.50
2018-03-11T01:26:58.158Z,96.50
2018-03-11T01:29:27.476Z,97.00
2018-03-11T01:31:57.727Z,96.50
2018-03-11T01:34:26.992Z,96.50
2018-03-11T01:36:56.672Z,96.60
2018-03-11T01:39:27.069Z,96.50
2018-03-11T01:41:57.010Z,97.00
2018-03-11T01:44:26.632Z,96.40
2018-03-11T01:46:56.414Z,96.30
2018-03-11T01:49:27.707Z,96.20
2018-03-11T01:51:56.406Z,96.20
2018-03-11T01:54:25.423Z,96.20
2018-03-11T01:56:54.510Z,96.70
2018-03-11T01:59:23.847Z,96.30
2018-03-11T02:01:53.943Z,96.80
2018-03-11T02:04:23.220Z,96.80
2018-03-11T02:06:52.472Z,96.90
2018-03-11T02:09:22.241Z,97.00
2018-03-11T02:11:52.275Z,97.00
2018-03-11T02:14:20.913Z,97.00
2018-03-11T02:16:49.613Z,96.90
2018-03-11T02:19:18.131Z,96.90
2018-03-11T02:21:48.096Z,96.80
2018-03-11T02:24:17.078Z,96.80
2018-03-11T02:26:46.083Z,96.80
2018-03-11T02:29:15.942Z,96.80
2018-03-11T02:31:44.757Z,96.90
2018-03-11T02:34:13.973Z,97.10
2018-03-11T02:36:42.678Z,97.10
2018-03-11T02:39:11.352Z,97.10
2018-03-11T02:41:40.089Z,96.90
2018-03-11T02:44:09.747Z,96.70
2018-03-11T02:46:38.720Z,96.70
2018-03-11T02:49:07.799Z,96.70
2018-03-11T02:51:37.498Z,96.80
2018-03-11T02:54:07.276Z,96.70
2018-03-11T02:56:36.151Z,96.70
2018-03-11T02:59:04.380Z,97.00
2018-03-11T03:01:33.531Z,97.00
2018-03-11T03:04:02.535Z,97.00
2018-03-11T03:06:31.052Z,97.10
2018-03-11T03:09:00.437Z,97.30
2018-03-11T03:11:29.994Z,97.30
2018-03-11T03:13:58.833Z,97.20
2018-03-11T03:16:27.901Z,97.20
2018-03-11T03:18:56.490Z,97.30
2018-03-11T03:21:24.899Z,97.30
2018-03-11T03:23:53.874Z,96.20
2018-03-11T03:26:22.267Z,96.10
2018-03-11T03:28:50.762Z,96.10
2018-03-11T03:31:20.485Z,95.80
2018-03-11T03:33:49.291Z,95.80
2018-03-11T03:36:19.186Z,95.80
2018-03-11T03:38:47.828Z,96.00
2018-03-11T03:41:16.465Z,95.90
2018-03-11T03:43:44.759Z,96.00
2018-03-11T03:46:13.521Z,96.30
2018-03-11T03:48:41.949Z,96.50
2018-03-11T03:51:10.611Z,96.50
2018-03-11T03:53:39.013Z,96.40
2018-03-11T03:56:08.819Z,96.40
2018-03-11T03:58:37.488Z,96.40
2018-03-11T04:01:06.296Z,96.50
2018-03-11T04:03:35.503Z,96.60
2018-03-11T04:06:04.117Z,96.60
2018-03-11T04:08:32.926Z,96.60
2018-03-11T04:11:01.540Z,96.60
2018-03-11T04:13:30.627Z,96.60
2018-03-11T04:15:59.301Z,96.70
2018-03-11T04:18:27.900Z,97.00
2018-03-11T04:20:56.297Z,96.80
2018-03-11T04:23:25.176Z,96.90
2018-03-11T04:25:53.987Z,97.20
2018-03-11T04:28:23.087Z,97.50
2018-03-11T04:30:51.961Z,97.50
2018-03-11T04:33:20.719Z,97.60
2018-03-11T04:35:49.256Z,97.80
2018-03-11T04:38:18.278Z,97.80
2018-03-11T04:40:47.233Z,97.80
2018-03-11T04:43:15.910Z,97.40
2018-03-11T04:45:45.070Z,97.50
2018-03-11T04:48:13.732Z,97.50
2018-03-11T04:50:42.231Z,97.60
2018-03-11T04:53:11.708Z,97.60
2018-03-11T04:55:41.045Z,97.60
2018-03-11T04:58:09.663Z,97.60
2018-03-11T05:00:38.859Z,97.70
2018-03-11T05:03:08.497Z,97.70
2018-03-11T05:05:37.434Z,97.70
2018-03-11T05:08:06.178Z,97.70
2018-03-11T05:10:35.418Z,97.80
2018-03-11T05:13:04.766Z,97.70
2018-03-11T05:15:34.143Z,97.70
2018-03-11T05:18:03.316Z,97.70
2018-03-11T05:20:31.886Z,97.70
2018-03-11T05:23:01.008Z,97.50
2018-03-11T05:25:30.084Z,97.40
2018-03-11T05:27:58.682Z,97.40
2018-03-11T05:30:28.067Z,97.40
2018-03-11T05:32:56.622Z,97.40
2018-03-11T05:35:25.026Z,97.40
2018-03-11T05:37:53.664Z,97.50
2018-03-11T05:40:24.876Z,97.50
2018-03-11T05:42:53.716Z,97.50
2018-03-11T05:45:22.406Z,97.50
2018-03-11T05:47:51.298Z,97.60
2018-03-11T05:50:19.965Z,97.60
2018-03-11T05:52:49.112Z,97.20
2018-03-11T05:55:18.085Z,97.10
2018-03-11T05:57:46.634Z,97.20
2018-03-11T06:00:16.061Z,97.10
2018-03-11T06:02:44.763Z,97.10
2018-03-11T06:05:13.486Z,97.10
2018-03-11T06:07:43.460Z,97.20
2018-03-11T06:10:12.401Z,97.10
2018-03-11T06:12:42.711Z,97.30
2018-03-11T06:15:11.948Z,97.40
2018-03-11T06:17:41.086Z,97.40
2018-03-11T06:20:11.113Z,97.40
2018-03-11T06:22:40.103Z,97.10
2018-03-11T06:25:09.455Z,97.10
2018-03-11T06:27:38.654Z,97.00
2018-03-11T06:30:07.064Z,97.00
2018-03-11T06:32:36.096Z,97.00
2018-03-11T06:35:05.034Z,96.90
2018-03-11T06:37:33.881Z,96.80
2018-03-11T06:40:03.046Z,96.10
2018-03-11T06:42:32.049Z,96.10
2018-03-11T06:45:00.797Z,96.20
2018-03-11T06:47:29.953Z,94.40
2018-03-11T06:49:59.571Z,94.70
2018-03-11T06:52:29.535Z,94.60
2018-03-11T06:54:58.453Z,94.90
2018-03-11T06:57:27.009Z,95.40
2018-03-11T06:59:57.224Z,95.10
2018-03-11T07:02:26.965Z,95.00
2018-03-11T07:04:57.124Z,95.10
2018-03-11T07:07:26.520Z,95.20
2018-03-11T07:09:56.521Z,95.40
2018-03-11T07:12:26.085Z,95.40
2018-03-11T07:14:56.191Z,95.40
2018-03-11T07:17:25.830Z,95.90
2018-03-11T07:19:55.343Z,95.20
2018-03-11T07:22:25.668Z,95.40
2018-03-11T07:24:55.417Z,95.50
2018-03-11T07:27:26.383Z,95.50
2018-03-11T07:29:56.317Z,95.50
2018-03-11T07:32:25.602Z,95.30
2018-03-11T07:34:55.400Z,95.10
2018-03-11T07:37:26.065Z,92.90
2018-03-11T07:39:56.072Z,92.70
2018-03-11T07:42:25.405Z,91.20
2018-03-11T07:44:55.363Z,88.70
2018-03-11T07:47:24.507Z,81.40
2018-03-11T07:49:54.260Z,80.00
2018-03-11T07:52:24.075Z,80.60
2018-03-11T07:54:53.658Z,80.80
2018-03-11T07:57:22.643Z,85.30
2018-03-11T07:59:52.784Z,86.10
2018-03-11T08:02:22.495Z,86.70
2018-03-11T08:04:54.185Z,87.80
2018-03-11T08:07:23.403Z,90.30
2018-03-11T08:09:52.849Z,91.10
2018-03-11T08:12:22.424Z,90.00
2018-03-11T08:14:58.793Z,87.20
2018-03-11T08:17:29.318Z,88.00
2018-03-11T08:19:58.697Z,88.80
2018-03-11T08:22:28.450Z,87.70
2018-03-11T08:24:57.613Z,86.70
2018-03-11T08:27:27.663Z,84.60
2018-03-11T08:29:56.952Z,84.40
2018-03-11T08:32:26.440Z,83.00
2018-03-11T08:34:56.232Z,82.60
2018-03-11T08:37:25.372Z,82.40
2018-03-11T08:39:56.895Z,81.70
2018-03-11T08:42:26.675Z,81.60
2018-03-11T08:44:56.653Z,81.60
2018-03-11T08:47:26.247Z,83.30
2018-03-11T08:49:56.225Z,76.80
2018-03-11T08:52:26.022Z,75.80
2018-03-11T08:54:55.372Z,77.70
2018-03-11T08:57:25.235Z,81.00
2018-03-11T08:59:54.291Z,85.20
2018-03-11T09:02:23.271Z,85.70
2018-03-11T09:04:52.463Z,86.30
2018-03-11T09:07:22.203Z,87.40
2018-03-11T09:09:50.948Z,88.60
2018-03-11T09:12:20.806Z,89.50
2018-03-11T09:14:50.437Z,89.40
2018-03-11T09:17:20.405Z,87.10
2018-03-11T09:19:50.105Z,87.10
2018-03-11T09:22:19.296Z,86.50
2018-03-11T09:24:48.877Z,87.00
2018-03-11T09:27:19.765Z,87.30
2018-03-11T09:29:48.860Z,87.00
2018-03-11T09:32:18.038Z,87.90
2018-03-11T09:34:47.152Z,87.20
2018-03-11T09:37:16.921Z,86.80
2018-03-11T09:39:46.014Z,85.30
2018-03-11T09:42:15.113Z,84.30
2018-03-11T09:44:45.048Z,83.90
2018-03-11T09:47:13.950Z,83.80
2018-03-11T09:49:42.923Z,83.80
2018-03-11T09:52:12.094Z,83.80
2018-03-11T09:54:41.604Z,83.00
2018-03-11T09:57:10.609Z,83.70
2018-03-11T09:59:40.296Z,82.40
2018-03-11T10:02:09.473Z,82.30
2018-03-11T10:04:39.537Z,82.30
2018-03-11T10:07:09.476Z,82.10
2018-03-11T10:09:39.226Z,82.10
2018-03-11T10:12:08.448Z,81.30
2018-03-11T10:14:38.484Z,80.60
2018-03-11T10:17:07.598Z,80.40
2018-03-11T10:19:36.866Z,79.20
2018-03-11T10:22:08.162Z,75.10
2018-03-11T10:24:37.317Z,75.20
2018-03-11T10:27:06.970Z,75.30
2018-03-11T10:29:35.754Z,75.40
2018-03-11T10:32:04.590Z,72.90
2018-03-11T10:34:34.362Z,70.00
2018-03-11T10:37:03.817Z,70.00
2018-03-11T10:39:32.598Z,70.50
2018-03-11T10:42:02.408Z,70.10
2018-03-11T10:44:32.638Z,68.50
2018-03-11T10:47:01.539Z,68.50
2018-03-11T10:49:30.529Z,66.30
2018-03-11T10:51:59.512Z,66.90
2018-03-11T10:54:29.271Z,67.60
2018-03-11T10:56:58.091Z,67.60
2018-03-11T10:59:27.827Z,68.50
2018-03-11T11:02:01.280Z,68.50
2018-03-11T11:04:33.839Z,68.10
2018-03-11T11:07:02.704Z,68.20
2018-03-11T11:09:31.840Z,67.30
2018-03-11T11:12:00.775Z,66.80
2018-03-11T11:14:31.899Z,67.70
2018-03-11T11:17:01.484Z,67.00
2018-03-11T11:19:31.724Z,66.80
2018-03-11T11:22:01.358Z,68.40
2018-03-11T11:24:30.541Z,68.30
2018-03-11T11:27:00.373Z,69.20
2018-03-11T11:29:29.487Z,69.10
2018-03-11T11:31:58.506Z,70.20
2018-03-11T11:34:27.597Z,70.30
2018-03-11T11:36:56.380Z,70.60
2018-03-11T11:39:26.236Z,71.60
2018-03-11T11:41:55.837Z,72.50
2018-03-11T11:44:25.484Z,73.20
2018-03-11T11:46:54.253Z,73.20
2018-03-11T11:49:23.959Z,73.70
2018-03-11T11:51:53.331Z,74.10
2018-03-11T11:54:23.181Z,74.20
2018-03-11T11:56:52.051Z,74.10
2018-03-11T11:59:21.649Z,74.90
2018-03-11T12:01:51.224Z,74.10
2018-03-11T12:04:20.004Z,74.00
2018-03-11T12:06:49.142Z,74.60
2018-03-11T12:09:18.679Z,74.00
2018-03-11T12:11:47.531Z,74.00
2018-03-11T12:14:17.380Z,73.50
2018-03-11T12:16:46.290Z,73.50
2018-03-11T12:19:15.352Z,73.80
2018-03-11T12:21:44.655Z,73.70
2018-03-11T12:24:13.666Z,74.20
2018-03-11T12:26:42.585Z,74.30
2018-03-11T12:29:11.585Z,74.40
2018-03-11T12:31:40.729Z,75.10
2018-03-11T12:34:10.175Z,75.50
2018-03-11T12:36:39.301Z,76.80
2018-03-11T12:39:09.468Z,77.90
2018-03-11T12:41:39.078Z,77.90
2018-03-11T12:44:08.456Z,77.50
2018-03-11T12:46:37.761Z,77.60
2018-03-11T12:49:07.524Z,77.60
2018-03-11T12:51:36.302Z,77.60
2018-03-11T12:54:05.243Z,77.50
2018-03-11T12:56:34.160Z,78.20
2018-03-11T12:59:02.929Z,78.30
2018-03-11T13:01:31.828Z,78.90
2018-03-11T13:04:00.503Z,79.20
2018-03-11T13:06:29.435Z,78.70
2018-03-11T13:08:58.250Z,78.60
2018-03-11T13:11:27.659Z,78.60
2018-03-11T13:13:57.329Z,78.40
2018-03-11T13:16:26.976Z,78.40
2018-03-11T13:18:56.474Z,77.80
2018-03-11T13:21:25.990Z,77.10
2018-03-11T13:23:54.589Z,77.10
2018-03-11T13:26:23.274Z,76.80
2018-03-11T13:28:52.438Z,76.40
2018-03-11T13:31:21.959Z,75.80
2018-03-11T13:34:16.198Z,75.80
2018-03-11T13:36:45.844Z,75.40
2018-03-11T13:39:26.439Z,75.30
2018-03-11T13:41:55.277Z,75.50
2018-03-11T13:44:24.347Z,75.80
2018-03-11T13:47:03.005Z,74.90
2018-03-11T13:49:32.612Z,74.20
2018-03-11T13:52:12.076Z,74.30
2018-03-11T13:54:40.851Z,73.80
2018-03-11T13:57:19.436Z,73.70
2018-03-11T13:59:50.502Z,74.50
2018-03-11T14:02:20.191Z,74.20
2018-03-11T14:04:49.400Z,74.20
2018-03-11T14:07:19.186Z,73.70
2018-03-11T14:09:48.411Z,73.60
2018-03-11T14:12:17.979Z,71.80
2018-03-11T14:14:48.205Z,71.80
2018-03-11T14:17:18.400Z,72.00
2018-03-11T14:19:48.403Z,71.20
2018-03-11T14:22:17.989Z,71.20
2018-03-11T14:24:47.482Z,71.50
2018-03-11T14:27:17.173Z,72.00
2018-03-11T14:29:46.154Z,71.90
2018-03-11T14:32:15.571Z,72.00
2018-03-11T14:34:45.504Z,71.70
2018-03-11T14:37:15.110Z,70.70
2018-03-11T14:39:44.900Z,70.50
2018-03-11T14:42:13.822Z,70.40
2018-03-11T14:44:42.699Z,69.70
2018-03-11T14:47:12.345Z,69.40
2018-03-11T14:49:41.191Z,69.40
2018-03-11T14:52:10.816Z,70.10
2018-03-11T14:54:42.010Z,70.90
2018-03-11T14:57:11.087Z,70.90
2018-03-11T14:59:40.082Z,70.50
2018-03-11T15:02:09.108Z,70.90
2018-03-11T15:04:38.117Z,71.10
2018-03-11T15:07:07.698Z,71.40
2018-03-11T15:09:36.533Z,71.40
2018-03-11T15:12:05.549Z,71.80
2018-03-11T15:14:34.574Z,71.70
2018-03-11T15:17:03.593Z,72.10
2018-03-11T15:19:33.435Z,72.30
2018-03-11T15:22:02.665Z,72.50
2018-03-11T15:24:31.613Z,72.30
2018-03-11T15:27:00.500Z,72.70
2018-03-11T15:29:30.112Z,73.10
2018-03-11T15:31:59.353Z,73.10
2018-03-11T15:34:28.049Z,73.10
2018-03-11T15:36:56.911Z,73.40
2018-03-11T15:39:25.865Z,73.60
2018-03-11T15:41:55.471Z,74.30
2018-03-11T15:44:25.168Z,74.70
2018-03-11T15:46:54.898Z,74.90
2018-03-11T15:49:23.998Z,74.90
2018-03-11T15:51:53.017Z,75.20
2018-03-11T15:54:21.972Z,75.50
2018-03-11T15:56:50.879Z,75.70
2018-03-11T15:59:19.844Z,76.10
2018-03-11T16:01:49.175Z,76.80
2018-03-11T16:04:18.058Z,77.10
2018-03-11T16:06:46.928Z,77.40
2018-03-11T16:09:16.944Z,78.00
2018-03-11T16:11:46.574Z,78.40
2018-03-11T16:14:15.457Z,78.40
2018-03-11T16:16:45.230Z,79.60
2018-03-11T16:19:14.354Z,79.60
2018-03-11T16:21:45.160Z,80.40
2018-03-11T16:24:14.316Z,81.00
2018-03-11T16:26:43.239Z,81.70
2018-03-11T16:29:11.972Z,82.20
2018-03-11T16:31:40.775Z,82.30
2018-03-11T16:34:09.973Z,82.50
2018-03-11T16:36:39.047Z,82.60
2018-03-11T16:39:08.837Z,83.00
2018-03-11T16:41:38.350Z,83.40
2018-03-11T16:44:07.981Z,83.20
2018-03-11T16:46:36.663Z,83.10
2018-03-11T16:49:05.738Z,83.40
2018-03-11T16:51:35.277Z,83.60
2018-03-11T16:54:04.139Z,83.60
2018-03-11T16:56:33.078Z,83.40
2018-03-11T16:59:02.004Z,84.10
2018-03-11T17:01:35.923Z,84.00
2018-03-11T17:04:05.463Z,84.20
2018-03-11T17:06:35.163Z,84.10
2018-03-11T17:09:04.601Z,84.40
2018-03-11T17:11:33.866Z,84.80
2018-03-11T17:14:02.745Z,85.30
2018-03-11T17:16:32.702Z,86.10
2018-03-11T17:19:13.436Z,86.10
2018-03-11T17:21:43.411Z,87.20
2018-03-11T17:24:13.754Z,87.10
2018-03-11T17:26:42.932Z,87.30
2018-03-11T17:29:12.686Z,88.10
2018-03-11T17:31:41.582Z,88.00
2018-03-11T17:34:11.461Z,88.50
2018-03-11T17:36:41.117Z,88.20
2018-03-11T17:39:10.380Z,88.20
2018-03-11T17:41:39.738Z,87.60
2018-03-11T17:44:09.117Z,87.40
2018-03-11T17:46:39.478Z,88.20
2018-03-11T17:49:08.461Z,88.20
2018-03-11T17:51:37.551Z,88.40
2018-03-11T17:54:06.432Z,88.80
2018-03-11T17:56:35.336Z,89.00
2018-03-11T17:59:05.098Z,88.60
2018-03-11T18:01:34.777Z,88.60
2018-03-11T18:04:04.915Z,88.20
2018-03-11T18:06:33.991Z,88.20
2018-03-11T18:09:04.485Z,88.30
2018-03-11T18:11:34.783Z,88.20
2018-03-11T18:14:04.037Z,88.00
2018-03-11T18:16:33.154Z,88.10
2018-03-11T18:19:02.356Z,88.20
2018-03-11T18:21:31.493Z,88.20
2018-03-11T18:24:00.447Z,88.30
2018-03-11T18:26:29.857Z,88.40
2018-03-11T18:28:58.614Z,88.60
2018-03-11T18:31:28.482Z,89.10
2018-03-11T18:33:57.377Z,89.10
2018-03-11T18:36:26.295Z,89.20
2018-03-11T18:38:55.874Z,89.70
2018-03-11T18:41:24.557Z,89.70
2018-03-11T18:43:54.234Z,90.10
2018-03-11T18:46:22.970Z,90.20
2018-03-11T18:48:51.784Z,90.30
2018-03-11T18:51:20.912Z,90.30
2018-03-11T18:53:49.738Z,90.40
2018-03-11T18:56:18.541Z,90.50
2018-03-11T18:58:47.873Z,90.70
2018-03-11T19:01:17.519Z,90.80
2018-03-11T19:03:46.392Z,90.80
2018-03-11T19:06:15.243Z,90.80
2018-03-11T19:08:44.635Z,91.00
2018-03-11T19:11:14.398Z,90.90
2018-03-11T19:13:43.527Z,90.90
2018-03-11T19:16:13.305Z,90.90
2018-03-11T19:18:44.933Z,91.10
2018-03-11T19:21:13.963Z,91.00
2018-03-11T19:23:42.617Z,91.10
2018-03-11T19:26:11.411Z,91.20
2018-03-11T19:28:41.464Z,91.20
2018-03-11T19:31:11.515Z,91.30
2018-03-11T19:33:41.079Z,91.30
2018-03-11T19:36:09.899Z,91.20
2018-03-11T19:38:39.658Z,91.20
2018-03-11T19:41:09.789Z,91.40
2018-03-11T19:43:39.722Z,91.30
2018-03-11T19:46:09.374Z,91.30
2018-03-11T19:48:39.021Z,91.30
2018-03-11T19:51:07.963Z,91.30
2018-03-11T19:53:37.586Z,91.30
2018-03-11T19:56:07.087Z,91.30
2018-03-11T19:58:35.978Z,91.40
2018-03-11T20:01:04.939Z,91.40
2018-03-11T20:03:34.632Z,91.40
2018-03-11T20:06:04.229Z,91.30
2018-03-11T20:08:33.109Z,91.30
2018-03-11T20:11:01.963Z,91.50
2018-03-11T20:13:32.201Z,91.60
2018-03-11T20:16:01.100Z,91.60
2018-03-11T20:18:30.219Z,91.70
2018-03-11T20:20:59.200Z,91.60
2018-03-11T20:23:28.110Z,91.70
2018-03-11T20:25:57.054Z,91.70
2018-03-11T20:28:27.932Z,91.70
2018-03-11T20:30:58.950Z,91.80
2018-03-11T20:33:28.138Z,91.90
2018-03-11T20:35:56.838Z,92.30
2018-03-11T20:38:25.580Z,92.10
2018-03-11T20:40:55.692Z,92.40
2018-03-11T20:43:26.032Z,92.50
2018-03-11T20:45:55.027Z,92.50
2018-03-11T20:48:23.972Z,92.60
2018-03-11T20:50:53.936Z,92.60
2018-03-11T20:53:23.094Z,92.60
2018-03-11T20:55:52.845Z,92.70
2018-03-11T20:58:22.390Z,92.60
2018-03-11T21:00:51.599Z,92.70
2018-03-11T21:03:20.627Z,92.80
2018-03-11T21:05:50.557Z,92.80
2018-03-11T21:08:19.450Z,92.80
2018-03-11T21:10:49.664Z,92.90
2018-03-11T21:13:18.497Z,92.90
2018-03-11T21:15:47.627Z,92.90
2018-03-11T21:18:17.226Z,93.10
2018-03-11T21:20:47.004Z,93.30
2018-03-11T21:23:16.737Z,93.10
2018-03-11T21:25:45.656Z,93.10
2018-03-11T21:28:16.772Z,93.10
2018-03-11T21:30:46.564Z,93.10
2018-03-11T21:33:15.473Z,93.10
2018-03-11T21:35:45.024Z,93.50
2018-03-11T21:38:13.945Z,93.40
2018-03-11T21:40:43.065Z,93.60
2018-03-11T21:43:12.975Z,93.70
2018-03-11T21:45:42.020Z,93.70
2018-03-11T21:48:10.967Z,93.70
2018-03-11T21:50:40.450Z,93.80
2018-03-11T21:53:09.790Z,93.80
2018-03-11T21:55:39.439Z,93.90
2018-03-11T21:58:08.513Z,93.90
2018-03-11T22:00:37.974Z,93.90
2018-03-11T22:03:07.309Z,93.90
2018-03-11T22:05:36.293Z,93.90
2018-03-11T22:08:05.635Z,94.00
2018-03-11T22:10:34.545Z,94.40
2018-03-11T22:13:03.568Z,94.30
2018-03-11T22:15:33.510Z,94.70
2018-03-11T22:18:02.606Z,94.70
2018-03-11T22:20:33.050Z,94.80
2018-03-11T22:23:02.799Z,94.90
2018-03-11T22:25:32.504Z,94.50
2018-03-11T22:28:01.629Z,94.50
2018-03-11T22:30:31.404Z,94.40
2018-03-11T22:33:01.209Z,94.40
2018-03-11T22:35:30.411Z,94.50
2018-03-11T22:38:00.466Z,94.70
2018-03-11T22:40:30.021Z,94.90
2018-03-11T22:42:59.723Z,95.00
2018-03-11T22:45:28.793Z,94.90
2018-03-11T22:48:00.493Z,94.80
2018-03-11T22:50:30.186Z,94.80
2018-03-11T22:53:01.245Z,95.00
2018-03-11T22:55:30.370Z,95.10
2018-03-11T22:57:59.914Z,95.00
2018-03-11T23:00:28.952Z,95.10
2018-03-11T23:02:59.189Z,95.00
2018-03-11T23:05:31.690Z,95.00
2018-03-11T23:08:00.940Z,95.00
2018-03-11T23:10:30.297Z,95.10
2018-03-11T23:13:00.052Z,95.80
2018-03-11T23:15:29.320Z,95.80
2018-03-11T23:17:59.298Z,95.70
2018-03-11T23:20:28.783Z,95.70
2018-03-11T23:22:59.755Z,96.00
2018-03-11T23:25:29.118Z,96.00
2018-03-11T23:27:59.375Z,96.00
2018-03-11T23:30:29.742Z,95.90
2018-03-11T23:32:59.888Z,95.90
2018-03-11T23:35:29.877Z,95.80
2018-03-11T23:37:59.847Z,95.80
2018-03-11T23:40:29.613Z,95.80
2018-03-11T23:42:59.059Z,95.80
2018-03-11T23:45:29.117Z,95.70
2018-03-11T23:47:59.403Z,95.60
2018-03-11T23:50:29.396Z,95.80
2018-03-11T23:52:59.109Z,95.90
2018-03-11T23:55:28.833Z,95.80
2018-03-11T23:57:57.936Z,95.80
